Time;durP1;ratioP1;P1;durP2;ratioP2;P2;SDS_P1;SDS_P2;PMS_P1;PMS_P2;Temp;Humidity;BMP_temperature;BMP_pressure;BME280_temperature;BME280_humidity;BME280_pressure;Samples;Min_cycle;Max_cycle;Signal;HPM_P1;HPM_P2
2021/08/26 00:00:00;;;;;;;4.50;3.90;;;14.00;99.90;;;;;;5056299;28;20491;-65
2021/08/26 00:07:55;;;;;;;5.30;3.60;;;14.10;99.90;;;;;;5070975;28;20518;-63
2021/08/26 00:10:24;;;;;;;4.77;3.90;;;14.10;99.90;;;;;;5076477;28;20489;-63
2021/08/26 00:12:53;;;;;;;4.20;3.80;;;14.10;99.90;;;;;;5062626;28;20967;-63
2021/08/26 00:15:19;;;;;;;4.00;3.67;;;14.10;99.90;;;;;;5056122;28;20411;-63
2021/08/26 00:17:45;;;;;;;5.03;4.27;;;14.10;99.90;;;;;;5068901;28;20822;-64
2021/08/26 00:20:12;;;;;;;3.73;3.30;;;14.00;99.90;;;;;;5076230;28;20441;-64
2021/08/26 00:22:38;;;;;;;4.00;3.57;;;14.00;99.90;;;;;;5075719;28;20435;-64
2021/08/26 00:25:05;;;;;;;5.40;3.20;;;13.90;99.90;;;;;;5075982;28;20460;-63
2021/08/26 00:27:31;;;;;;;7.10;4.10;;;13.90;99.90;;;;;;5064870;28;20177;-64
2021/08/26 00:29:57;;;;;;;5.00;4.57;;;13.80;99.90;;;;;;5056265;28;20948;-64
2021/08/26 00:32:22;;;;;;;5.53;3.97;;;13.80;99.90;;;;;;5066222;28;20803;-64
2021/08/26 00:34:48;;;;;;;3.70;3.40;;;13.80;99.90;;;;;;5076075;28;20181;-63
2021/08/26 00:37:14;;;;;;;6.03;3.77;;;13.70;99.90;;;;;;5067153;28;20184;-65
2021/08/26 00:39:40;;;;;;;4.13;3.73;;;13.70;99.90;;;;;;5055684;28;20571;-63
2021/08/26 00:42:06;;;;;;;4.40;3.37;;;13.70;99.90;;;;;;5062754;28;20191;-64
2021/08/26 00:44:32;;;;;;;4.43;3.97;;;13.70;99.90;;;;;;5075346;28;20270;-64
2021/08/26 00:46:58;;;;;;;7.67;5.40;;;13.70;99.90;;;;;;5070341;28;20509;-63
2021/08/26 00:49:29;;;;;;;7.47;5.20;;;13.60;99.90;;;;;;5054313;28;20197;-63
2021/08/26 00:51:56;;;;;;;5.73;4.23;;;13.60;99.90;;;;;;5061164;28;20174;-63
2021/08/26 00:54:21;;;;;;;4.47;3.33;;;13.50;99.90;;;;;;5075535;28;20404;-63
2021/08/26 00:56:47;;;;;;;6.40;4.47;;;13.50;99.90;;;;;;5074108;28;20421;-63
2021/08/26 00:59:12;;;;;;;5.77;3.73;;;13.40;99.90;;;;;;5075337;28;20187;-65
2021/08/26 01:01:42;;;;;;;5.03;4.10;;;13.40;99.90;;;;;;5072147;28;20181;-64
2021/08/26 01:04:16;;;;;;;3.90;3.07;;;13.30;99.90;;;;;;5055368;28;20170;-63
2021/08/26 01:06:56;;;;;;;5.77;4.30;;;13.30;99.90;;;;;;5066946;28;20497;-64
2021/08/26 01:09:26;;;;;;;6.57;3.97;;;13.30;99.90;;;;;;5075282;28;20408;-64
2021/08/26 01:11:53;;;;;;;4.73;4.23;;;13.30;99.90;;;;;;5074890;28;20387;-64
2021/08/26 01:14:19;;;;;;;6.17;4.50;;;13.20;99.90;;;;;;5075268;28;20488;-63
2021/08/26 01:16:45;;;;;;;5.20;4.00;;;13.10;99.90;;;;;;5063871;28;20907;-64
2021/08/26 01:19:11;;;;;;;5.37;4.23;;;13.10;99.90;;;;;;5053809;28;20458;-64
2021/08/26 01:21:36;;;;;;;5.93;4.27;;;13.10;99.90;;;;;;5056704;28;20647;-63
2021/08/26 01:24:08;;;;;;;5.70;4.20;;;13.10;99.90;;;;;;5061218;28;20173;-64
2021/08/26 01:26:37;;;;;;;5.05;4.55;;;13.00;99.90;;;;;;5054559;28;20210;-64
2021/08/26 01:29:06;;;;;;;5.07;4.25;;;13.00;99.90;;;;;;5054770;28;20532;-64
2021/08/26 01:31:32;;;;;;;6.63;4.23;;;12.90;99.90;;;;;;5055620;28;20244;-64
2021/08/26 01:34:00;;;;;;;4.60;3.80;;;12.90;99.90;;;;;;5070590;28;20942;-64
2021/08/26 01:36:27;;;;;;;5.10;4.22;;;12.90;99.90;;;;;;5072854;28;20395;-64
2021/08/26 01:38:58;;;;;;;4.27;3.90;;;12.90;99.90;;;;;;5073939;28;20289;-64
2021/08/26 01:41:37;;;;;;;7.37;4.93;;;12.90;99.90;;;;;;5074739;28;20409;-63
2021/08/26 01:44:03;;;;;;;4.38;3.97;;;12.80;99.90;;;;;;5074197;28;20470;-64
2021/08/26 01:46:28;;;;;;;6.00;5.50;;;12.80;99.90;;;;;;5058421;28;20691;-63
2021/08/26 01:48:54;;;;;;;4.00;3.63;;;12.80;99.90;;;;;;5052917;28;20224;-64
2021/08/26 01:51:20;;;;;;;5.63;4.57;;;12.80;99.90;;;;;;5054496;28;20171;-63
2021/08/26 01:53:45;;;;;;;4.93;3.87;;;12.80;99.90;;;;;;5056866;28;20649;-64
2021/08/26 01:56:11;;;;;;;5.60;4.30;;;12.80;99.90;;;;;;5054556;28;20636;-64
2021/08/26 01:58:36;;;;;;;6.07;4.60;;;12.80;99.90;;;;;;5053730;28;20229;-64
2021/08/26 02:01:02;;;;;;;7.23;4.43;;;12.80;99.90;;;;;;5054386;28;20263;-64
2021/08/26 02:03:27;;;;;;;4.90;4.50;;;12.80;99.90;;;;;;5071188;28;21870;-64
2021/08/26 02:05:53;;;;;;;6.17;5.63;;;12.80;99.90;;;;;;5054075;28;20202;-65
2021/08/26 02:08:19;;;;;;;6.80;5.00;;;12.70;99.90;;;;;;5053805;28;20191;-64
2021/08/26 02:10:44;;;;;;;4.30;4.00;;;12.70;99.90;;;;;;5054179;28;20183;-64
2021/08/26 02:13:10;;;;;;;7.40;5.00;;;12.70;99.90;;;;;;5070675;28;20175;-66
2021/08/26 02:15:35;;;;;;;5.80;4.67;;;12.70;99.90;;;;;;5053846;28;20248;-63
2021/08/26 02:18:01;;;;;;;6.00;4.60;;;12.70;99.90;;;;;;5053564;28;20239;-64
2021/08/26 02:20:27;;;;;;;4.60;4.00;;;12.60;99.90;;;;;;5053917;28;20216;-64
2021/08/26 02:22:52;;;;;;;5.97;4.43;;;12.60;99.90;;;;;;5068559;28;20183;-64
2021/08/26 02:25:18;;;;;;;5.67;5.13;;;12.60;99.90;;;;;;5056567;28;20289;-64
2021/08/26 02:27:43;;;;;;;5.23;4.47;;;12.60;99.90;;;;;;5053367;28;20253;-64
2021/08/26 02:30:10;;;;;;;7.23;4.73;;;12.60;99.90;;;;;;5053596;28;20193;-64
2021/08/26 02:32:36;;;;;;;6.90;5.10;;;12.60;99.90;;;;;;5065688;28;20211;-64
2021/08/26 02:35:03;;;;;;;7.67;5.40;;;12.60;99.90;;;;;;5071952;28;20189;-64
2021/08/26 02:37:28;;;;;;;5.07;4.57;;;12.60;99.90;;;;;;5073174;28;20408;-64
2021/08/26 02:39:54;;;;;;;7.27;4.73;;;12.50;99.90;;;;;;5071717;28;20654;-64
2021/08/26 02:42:20;;;;;;;4.50;4.10;;;12.50;99.90;;;;;;5073267;28;20170;-65
2021/08/26 02:44:45;;;;;;;5.50;4.10;;;12.40;99.90;;;;;;5060499;28;20206;-65
2021/08/26 02:47:11;;;;;;;5.87;4.60;;;12.40;99.90;;;;;;5053078;28;20292;-64
2021/08/26 02:49:37;;;;;;;8.20;6.47;;;12.40;99.90;;;;;;5053675;28;20199;-65
2021/08/26 02:52:04;;;;;;;5.95;4.85;;;12.40;99.90;;;;;;5053502;28;20170;-64
2021/08/26 02:54:30;;;;;;;7.13;5.10;;;12.40;99.90;;;;;;5061980;28;20274;-63
2021/08/26 02:56:55;;;;;;;5.43;4.40;;;12.30;99.90;;;;;;5073083;28;20223;-64
2021/08/26 02:59:21;;;;;;;8.93;6.23;;;12.30;99.90;;;;;;5061299;28;20198;-64
2021/08/26 03:01:47;;;;;;;5.10;4.40;;;12.40;99.90;;;;;;5053310;28;20186;-64
2021/08/26 03:04:12;;;;;;;4.80;4.30;;;12.40;99.90;;;;;;5059188;28;20168;-64
2021/08/26 03:06:38;;;;;;;6.37;4.60;;;12.50;99.90;;;;;;5072915;28;20204;-64
2021/08/26 03:09:04;;;;;;;5.90;4.40;;;12.50;99.90;;;;;;5063901;28;20250;-64
2021/08/26 03:11:29;;;;;;;5.87;5.27;;;12.50;99.90;;;;;;5053116;28;20631;-64
2021/08/26 03:13:55;;;;;;;5.60;4.90;;;12.60;99.90;;;;;;5054543;28;20245;-64
2021/08/26 03:16:20;;;;;;;7.70;5.17;;;12.60;99.90;;;;;;5053149;28;20262;-64
2021/08/26 03:18:46;;;;;;;8.60;5.13;;;12.60;99.90;;;;;;5052714;28;20196;-64
2021/08/26 03:21:14;;;;;;;7.83;4.43;;;12.60;99.90;;;;;;5053194;28;20177;-64
2021/08/26 03:23:39;;;;;;;6.88;4.40;;;12.70;99.90;;;;;;5054313;28;20427;-65
2021/08/26 03:26:05;;;;;;;5.10;4.60;;;12.70;99.90;;;;;;5052875;28;20570;-65
2021/08/26 03:28:30;;;;;;;5.43;4.90;;;12.70;99.90;;;;;;5052521;28;20267;-65
2021/08/26 03:30:57;;;;;;;6.23;4.73;;;12.70;99.90;;;;;;5052798;28;20171;-66
2021/08/26 03:33:23;;;;;;;4.80;4.33;;;12.80;99.90;;;;;;5064248;28;20212;-67
2021/08/26 03:35:49;;;;;;;8.67;5.77;;;12.80;99.90;;;;;;5053189;28;20415;-65
2021/08/26 03:38:15;;;;;;;5.20;4.27;;;12.80;99.90;;;;;;5052417;28;20190;-64
2021/08/26 03:40:41;;;;;;;8.83;5.10;;;12.80;99.90;;;;;;5053110;28;20409;-65
2021/08/26 03:43:07;;;;;;;5.37;4.80;;;12.80;99.90;;;;;;5061302;28;20418;-64
2021/08/26 03:45:33;;;;;;;5.17;4.70;;;12.90;99.90;;;;;;5055171;28;20449;-65
2021/08/26 03:47:58;;;;;;;4.70;4.30;;;12.90;99.90;;;;;;5052587;28;20176;-65
2021/08/26 03:50:24;;;;;;;6.20;4.90;;;12.90;99.90;;;;;;5052868;28;20174;-65
2021/08/26 03:52:50;;;;;;;5.90;4.87;;;13.00;99.90;;;;;;5058941;28;20416;-64
2021/08/26 03:55:16;;;;;;;5.97;4.40;;;13.00;99.90;;;;;;5057738;28;20190;-65
2021/08/26 03:57:42;;;;;;;6.10;5.30;;;13.00;99.90;;;;;;5052630;28;20254;-65
2021/08/26 04:00:08;;;;;;;6.30;4.57;;;13.00;99.90;;;;;;5052678;28;20511;-65
2021/08/26 04:02:34;;;;;;;4.67;4.27;;;13.00;99.90;;;;;;5053049;28;20172;-65
2021/08/26 04:04:59;;;;;;;6.00;5.07;;;13.00;99.90;;;;;;5064691;28;20520;-65
2021/08/26 04:07:25;;;;;;;7.30;5.03;;;13.00;99.90;;;;;;5072447;28;20177;-65
2021/08/26 04:09:52;;;;;;;5.87;5.27;;;13.00;99.90;;;;;;5072511;28;20235;-65
2021/08/26 04:12:17;;;;;;;4.33;3.93;;;13.00;99.90;;;;;;5067163;28;20847;-65
2021/08/26 04:14:43;;;;;;;4.77;4.37;;;13.00;99.90;;;;;;5061439;28;20395;-64
2021/08/26 04:17:09;;;;;;;7.13;5.33;;;13.00;99.90;;;;;;5072196;28;20167;-64
2021/08/26 04:19:34;;;;;;;5.27;3.90;;;13.00;99.90;;;;;;5059892;28;20202;-65
2021/08/26 04:22:00;;;;;;;5.70;4.33;;;13.10;99.90;;;;;;5052820;28;20547;-64
2021/08/26 04:24:26;;;;;;;6.00;5.30;;;13.10;99.90;;;;;;5066628;28;20328;-65
2021/08/26 04:26:51;;;;;;;5.40;4.67;;;13.10;99.90;;;;;;5055940;28;20168;-65
2021/08/26 04:29:17;;;;;;;4.87;4.30;;;13.20;99.90;;;;;;5055672;28;20188;-63
2021/08/26 04:31:42;;;;;;;4.93;4.50;;;13.20;99.90;;;;;;5055785;28;20534;-65
2021/08/26 04:34:08;;;;;;;8.43;4.57;;;13.30;99.90;;;;;;5056084;28;20643;-64
2021/08/26 04:36:34;;;;;;;6.10;4.80;;;13.30;99.90;;;;;;5055723;28;20167;-69
2021/08/26 04:38:59;;;;;;;5.43;4.87;;;13.30;99.90;;;;;;5055822;28;20298;-64
2021/08/26 04:41:25;;;;;;;5.67;4.80;;;13.30;99.90;;;;;;5055684;28;20176;-65
2021/08/26 04:43:51;;;;;;;7.33;5.30;;;13.40;99.90;;;;;;5054444;28;20187;-65
2021/08/26 04:46:17;;;;;;;5.43;4.80;;;13.40;99.90;;;;;;5056645;28;20238;-64
2021/08/26 04:48:43;;;;;;;6.37;3.83;;;13.50;99.90;;;;;;5055128;28;20429;-65
2021/08/26 04:51:08;;;;;;;5.20;4.33;;;13.40;99.90;;;;;;5054389;28;20176;-65
2021/08/26 04:53:34;;;;;;;5.23;4.73;;;13.50;99.90;;;;;;5068550;28;20212;-66
2021/08/26 04:56:00;;;;;;;5.40;4.80;;;13.50;99.90;;;;;;5075089;28;20557;-64
2021/08/26 04:58:25;;;;;;;5.80;3.80;;;13.60;99.90;;;;;;5057104;28;20204;-64
2021/08/26 05:00:51;;;;;;;12.43;4.80;;;13.60;99.90;;;;;;5052247;28;20180;-65
2021/08/26 05:03:17;;;;;;;5.33;4.83;;;13.70;99.90;;;;;;5054050;28;20173;-66
2021/08/26 05:05:42;;;;;;;6.27;4.33;;;13.70;99.90;;;;;;5053227;28;20200;-67
2021/08/26 05:08:08;;;;;;;6.20;4.80;;;13.80;99.90;;;;;;5052876;28;20179;-65
2021/08/26 05:10:37;;;;;;;4.93;3.93;;;13.80;99.90;;;;;;5053260;28;20179;-65
2021/08/26 05:13:02;;;;;;;5.73;4.00;;;13.90;99.90;;;;;;5055919;28;20168;-65
2021/08/26 05:15:28;;;;;;;8.70;4.50;;;13.90;99.90;;;;;;5054728;28;20518;-64
2021/08/26 05:17:53;;;;;;;5.33;4.90;;;14.00;99.90;;;;;;5054623;28;20181;-63
2021/08/26 05:20:19;;;;;;;4.30;3.90;;;14.10;99.90;;;;;;5055240;28;20176;-64
2021/08/26 05:22:45;;;;;;;5.73;4.50;;;14.20;99.90;;;;;;5065059;28;20293;-64
2021/08/26 05:25:10;;;;;;;5.67;4.97;;;14.20;99.90;;;;;;5054782;28;20223;-65
2021/08/26 05:27:36;;;;;;;6.97;4.63;;;14.30;99.90;;;;;;5053567;28;20176;-63
2021/08/26 05:30:02;;;;;;;5.00;4.63;;;14.40;99.90;;;;;;5063368;28;20265;-64
2021/08/26 05:32:27;;;;;;;7.63;5.03;;;14.40;99.90;;;;;;5070918;28;20655;-63
2021/08/26 05:34:53;;;;;;;5.37;4.87;;;14.50;99.90;;;;;;5054411;28;20457;-64
2021/08/26 05:37:19;;;;;;;7.30;4.67;;;14.60;99.90;;;;;;5063767;28;20177;-64
2021/08/26 05:39:45;;;;;;;4.40;3.73;;;14.70;99.90;;;;;;5074522;28;20257;-64
2021/08/26 05:42:11;;;;;;;5.63;4.90;;;14.70;99.90;;;;;;5074080;28;20168;-64
2021/08/26 05:44:36;;;;;;;4.83;4.43;;;14.80;99.90;;;;;;5054732;28;20411;-64
2021/08/26 05:47:03;;;;;;;5.43;4.53;;;14.80;99.90;;;;;;5059012;28;20211;-64
2021/08/26 05:49:28;;;;;;;4.70;4.33;;;14.80;99.90;;;;;;5074312;28;20242;-64
2021/08/26 05:51:56;;;;;;;5.30;4.80;;;14.90;99.90;;;;;;5074547;28;20442;-64
2021/08/26 05:54:22;;;;;;;4.60;4.20;;;15.00;99.90;;;;;;5056738;28;20505;-63
2021/08/26 05:56:48;;;;;;;6.27;5.33;;;15.00;99.90;;;;;;5054131;28;20424;-63
2021/08/26 05:59:13;;;;;;;4.93;4.50;;;15.10;99.90;;;;;;5054193;28;20918;-64
2021/08/26 06:01:39;;;;;;;7.40;5.23;;;15.20;99.90;;;;;;5054393;28;20180;-64
2021/08/26 06:04:04;;;;;;;5.83;5.23;;;15.20;99.90;;;;;;5069825;28;20687;-63
2021/08/26 06:06:30;;;;;;;5.57;3.87;;;15.30;99.90;;;;;;5084213;28;20220;-68
2021/08/26 06:08:55;;;;;;;5.33;4.83;;;15.30;99.90;;;;;;5073654;28;20218;-63
2021/08/26 06:11:21;;;;;;;5.50;4.20;;;15.40;99.90;;;;;;5073960;28;20191;-64
2021/08/26 06:13:47;;;;;;;9.27;4.10;;;15.40;99.90;;;;;;5062521;28;20687;-65
2021/08/26 06:16:12;;;;;;;4.90;4.30;;;15.50;99.90;;;;;;5059234;28;20276;-64
2021/08/26 06:18:38;;;;;;;6.73;5.20;;;15.50;99.90;;;;;;5073337;28;20198;-64
2021/08/26 06:21:04;;;;;;;6.63;4.90;;;15.50;99.90;;;;;;5073694;28;20177;-63
2021/08/26 06:23:29;;;;;;;6.53;5.90;;;15.60;99.90;;;;;;5067840;28;20204;-65
2021/08/26 06:25:55;;;;;;;6.83;4.13;;;15.60;99.90;;;;;;5070221;28;20612;-66
2021/08/26 06:28:21;;;;;;;9.13;4.77;;;15.60;99.90;;;;;;5054521;28;20195;-65
2021/08/26 06:30:46;;;;;;;6.13;4.97;;;15.60;99.90;;;;;;5071894;28;20180;-66
2021/08/26 06:33:12;;;;;;;6.20;5.60;;;15.60;99.90;;;;;;5073012;28;20188;-64
2021/08/26 06:35:38;;;;;;;8.17;4.80;;;15.70;99.90;;;;;;5073475;28;20264;-73
2021/08/26 06:38:04;;;;;;;5.23;4.73;;;15.70;99.90;;;;;;5073236;28;20168;-65
2021/08/26 06:40:30;;;;;;;6.30;5.37;;;15.70;99.90;;;;;;5065714;28;20429;-65
2021/08/26 06:42:55;;;;;;;4.60;4.13;;;15.80;99.90;;;;;;5084684;28;20670;-63
2021/08/26 06:45:21;;;;;;;8.00;7.20;;;15.80;99.90;;;;;;5056433;28;20280;-65
2021/08/26 06:47:47;;;;;;;5.63;4.80;;;15.90;99.90;;;;;;5081763;28;20176;-64
2021/08/26 06:50:12;;;;;;;8.30;5.90;;;15.90;99.90;;;;;;5071444;28;20200;-65
2021/08/26 06:52:38;;;;;;;8.00;5.20;;;15.90;99.90;;;;;;5061152;28;20501;-62
2021/08/26 06:55:04;;;;;;;6.60;5.60;;;15.90;99.90;;;;;;5071944;28;20169;-62
2021/08/26 06:57:30;;;;;;;9.17;5.50;;;15.90;99.90;;;;;;5073006;28;20594;-63
2021/08/26 06:59:56;;;;;;;6.20;4.83;;;16.00;99.90;;;;;;5056270;28;20508;-63
2021/08/26 07:02:21;;;;;;;5.47;4.97;;;16.00;99.90;;;;;;5058999;28;20481;-64
2021/08/26 07:04:47;;;;;;;5.83;4.90;;;15.90;99.90;;;;;;5072908;28;20172;-65
2021/08/26 07:07:13;;;;;;;5.63;5.07;;;15.90;99.90;;;;;;5072174;28;20173;-64
2021/08/26 07:09:39;;;;;;;14.40;5.80;;;16.00;99.90;;;;;;5073032;28;20188;-63
2021/08/26 07:12:05;;;;;;;6.73;5.90;;;16.00;99.90;;;;;;5063336;28;20169;-64
2021/08/26 07:14:30;;;;;;;6.67;5.43;;;16.00;99.90;;;;;;5073103;28;20165;-63
2021/08/26 07:16:56;;;;;;;6.23;5.63;;;16.10;99.90;;;;;;5072674;28;20920;-63
2021/08/26 07:19:22;;;;;;;8.57;7.53;;;16.10;99.90;;;;;;5070375;28;20197;-64
2021/08/26 07:21:48;;;;;;;9.30;6.77;;;16.10;99.90;;;;;;5072767;28;20430;-64
2021/08/26 07:24:17;;;;;;;7.10;6.40;;;16.10;99.90;;;;;;5073150;28;20163;-64
2021/08/26 07:26:42;;;;;;;6.97;5.70;;;16.10;99.90;;;;;;5071246;28;20455;-64
2021/08/26 07:29:09;;;;;;;9.43;6.53;;;16.10;99.90;;;;;;5065021;28;20468;-62
2021/08/26 07:31:35;;;;;;;6.80;6.03;;;16.10;99.90;;;;;;5060373;28;20255;-63
2021/08/26 07:34:01;;;;;;;4.87;4.47;;;16.10;99.90;;;;;;5071479;28;20502;-65
2021/08/26 07:36:26;;;;;;;9.80;6.20;;;16.10;99.90;;;;;;5072834;28;20172;-63
2021/08/26 07:38:52;;;;;;;7.47;6.77;;;16.10;99.90;;;;;;5068413;28;20241;-64
2021/08/26 07:41:18;;;;;;;6.97;5.80;;;16.10;99.90;;;;;;5065554;28;20659;-63
2021/08/26 07:43:44;;;;;;;6.33;5.73;;;16.20;99.90;;;;;;5072554;28;20200;-63
2021/08/26 07:46:10;;;;;;;7.23;6.10;;;16.20;99.90;;;;;;5072523;28;20483;-63
2021/08/26 07:48:36;;;;;;;7.17;6.40;;;16.30;99.90;;;;;;5070846;28;20685;-64
2021/08/26 07:51:03;;;;;;;9.57;6.33;;;16.30;99.90;;;;;;5052923;28;20423;-64
2021/08/26 07:53:33;;;;;;;7.70;6.00;;;16.40;99.90;;;;;;5052768;28;20654;-64
2021/08/26 07:55:59;;;;;;;8.60;6.20;;;16.40;99.90;;;;;;5052583;28;20404;-64
2021/08/26 07:58:27;;;;;;;7.30;6.43;;;16.40;99.90;;;;;;5051206;28;20403;-63
2021/08/26 08:00:54;;;;;;;7.50;6.23;;;16.40;99.90;;;;;;5069248;28;20400;-64
2021/08/26 08:03:20;;;;;;;5.57;5.00;;;16.40;99.90;;;;;;5075001;28;20419;-64
2021/08/26 08:05:45;;;;;;;8.20;7.10;;;16.20;99.90;;;;;;5056342;28;20965;-67
2021/08/26 08:08:11;;;;;;;7.57;6.87;;;16.20;99.90;;;;;;5056078;28;20174;-65
2021/08/26 08:10:37;;;;;;;6.27;5.67;;;16.00;99.90;;;;;;5055182;28;20697;-62
2021/08/26 08:13:02;;;;;;;7.03;6.33;;;15.90;99.90;;;;;;5063418;28;20717;-64
2021/08/26 08:15:28;;;;;;;8.23;6.10;;;15.80;99.90;;;;;;5057689;28;20651;-64
2021/08/26 08:17:54;;;;;;;10.00;6.40;;;15.60;99.90;;;;;;5055698;28;20176;-65
2021/08/26 08:20:19;;;;;;;8.37;7.43;;;15.50;99.90;;;;;;5056177;28;20177;-64
2021/08/26 08:22:45;;;;;;;10.23;8.13;;;15.50;99.90;;;;;;5056221;28;20714;-63
2021/08/26 08:25:12;;;;;;;8.80;6.97;;;15.40;99.90;;;;;;5069558;28;20196;-64
2021/08/26 08:27:37;;;;;;;7.13;6.50;;;15.30;99.90;;;;;;5064993;28;20166;-62
2021/08/26 08:30:04;;;;;;;10.03;7.60;;;15.40;99.90;;;;;;5054829;28;20518;-65
2021/08/26 08:32:30;;;;;;;7.70;7.00;;;15.30;99.90;;;;;;5056720;28;20192;-63
2021/08/26 08:34:55;;;;;;;8.13;6.63;;;15.30;99.90;;;;;;5068453;28;20459;-63
2021/08/26 08:37:21;;;;;;;8.70;6.90;;;15.40;99.90;;;;;;5065164;28;20206;-63
2021/08/26 08:39:47;;;;;;;9.00;6.60;;;15.40;99.90;;;;;;5096072;28;20203;-65
2021/08/26 08:42:12;;;;;;;9.23;6.53;;;15.40;99.90;;;;;;5085626;28;20181;-64
2021/08/26 08:44:38;;;;;;;7.27;6.57;;;15.50;99.90;;;;;;5067169;28;20208;-65
2021/08/26 08:47:05;;;;;;;7.37;5.77;;;15.60;99.90;;;;;;5055069;28;20229;-64
2021/08/26 08:49:35;;;;;;;6.33;5.53;;;15.70;99.90;;;;;;5054329;28;20197;-64
2021/08/26 08:52:01;;;;;;;7.17;6.47;;;15.70;99.90;;;;;;5055892;28;20389;-65
2021/08/26 08:54:26;;;;;;;9.70;5.73;;;15.80;99.90;;;;;;5058491;28;20956;-63
2021/08/26 08:56:52;;;;;;;7.20;6.17;;;15.90;99.90;;;;;;5074035;28;20176;-64
2021/08/26 08:59:18;;;;;;;7.97;7.17;;;16.10;99.90;;;;;;5075565;28;20189;-63
2021/08/26 09:01:52;;;;;;;7.30;6.60;;;16.20;99.90;;;;;;5090897;28;20207;-64
2021/08/26 09:04:18;;;;;;;6.50;5.33;;;16.40;99.90;;;;;;5069601;28;20544;-63
2021/08/26 09:06:44;;;;;;;8.17;6.30;;;16.50;99.90;;;;;;5055190;28;20668;-64
2021/08/26 09:09:11;;;;;;;9.70;6.30;;;16.60;99.90;;;;;;5059191;28;20436;-65
2021/08/26 09:11:47;;;;;;;7.73;6.37;;;16.70;99.90;;;;;;5073966;28;20390;-64
2021/08/26 09:14:14;;;;;;;8.13;7.43;;;16.70;99.90;;;;;;5070554;28;20444;-67
2021/08/26 09:16:42;;;;;;;7.70;6.93;;;16.80;99.90;;;;;;5055711;28;20418;-64
2021/08/26 09:19:28;;;;;;;7.23;6.20;;;16.80;99.90;;;;;;5054876;28;20503;-64
2021/08/26 09:21:54;;;;;;;7.90;6.50;;;16.80;99.90;;;;;;5062981;28;20402;-63
2021/08/26 09:24:21;;;;;;;7.23;6.27;;;16.80;99.90;;;;;;5068520;28;20394;-64
2021/08/26 09:26:51;;;;;;;6.90;5.80;;;16.70;99.90;;;;;;5073878;28;20543;-64
2021/08/26 09:29:17;;;;;;;9.80;5.67;;;16.60;99.90;;;;;;5075017;28;20396;-64
2021/08/26 09:31:45;;;;;;;8.23;7.40;;;16.60;99.90;;;;;;5074666;28;20410;-64
2021/08/26 09:34:19;;;;;;;9.70;7.00;;;16.60;99.90;;;;;;5071404;28;21031;-63
2021/08/26 09:36:47;;;;;;;7.93;7.13;;;16.60;99.90;;;;;;5065486;28;20470;-64
2021/08/26 09:39:15;;;;;;;7.40;6.43;;;16.50;99.90;;;;;;5072449;28;20437;-64
2021/08/26 09:41:56;;;;;;;7.23;6.50;;;16.30;99.90;;;;;;5074680;28;20403;-64
2021/08/26 09:44:27;;;;;;;7.77;6.27;;;16.20;99.90;;;;;;5070159;28;20448;-64
2021/08/26 09:46:54;;;;;;;8.23;7.13;;;16.10;99.90;;;;;;5054161;28;20788;-63
2021/08/26 09:49:22;;;;;;;7.20;6.50;;;16.00;99.90;;;;;;5054528;28;20421;-64
2021/08/26 09:52:13;;;;;;;11.57;6.80;;;16.00;99.90;;;;;;5054650;28;20487;-63
2021/08/26 09:54:41;;;;;;;7.47;6.77;;;16.10;99.90;;;;;;5059218;28;20776;-64
2021/08/26 09:57:24;;;;;;;9.00;6.47;;;16.10;99.90;;;;;;5073782;28;20448;-64
2021/08/26 09:59:52;;;;;;;6.43;5.83;;;16.00;99.90;;;;;;5072874;28;20423;-63
2021/08/26 10:02:19;;;;;;;7.87;7.03;;;16.10;99.90;;;;;;5072945;28;20400;-63
2021/08/26 10:04:45;;;;;;;7.67;6.63;;;16.10;99.90;;;;;;5067484;28;20794;-63
2021/08/26 10:07:11;;;;;;;7.37;6.43;;;16.20;99.90;;;;;;5054083;28;20788;-64
2021/08/26 10:09:40;;;;;;;5.60;5.10;;;16.20;99.90;;;;;;5054242;28;20455;-63
2021/08/26 10:12:06;;;;;;;5.73;5.20;;;16.20;99.90;;;;;;5054010;28;20176;-63
2021/08/26 10:14:33;;;;;;;5.13;4.73;;;16.10;99.90;;;;;;5058193;28;20454;-63
2021/08/26 10:17:00;;;;;;;4.83;4.43;;;16.10;99.90;;;;;;5073517;28;20406;-62
2021/08/26 10:19:26;;;;;;;4.70;4.30;;;16.10;99.90;;;;;;5063133;28;21015;-63
2021/08/26 10:21:52;;;;;;;4.67;4.27;;;16.10;99.90;;;;;;5052168;28;20405;-63
2021/08/26 10:24:22;;;;;;;5.13;4.63;;;16.10;99.90;;;;;;5054413;28;20411;-62
2021/08/26 10:26:52;;;;;;;4.23;3.60;;;16.20;99.90;;;;;;5053903;28;20482;-62
2021/08/26 10:29:21;;;;;;;4.63;4.17;;;16.30;99.90;;;;;;5061792;28;20411;-65
2021/08/26 10:31:56;;;;;;;3.90;3.60;;;16.30;99.90;;;;;;5073588;28;20453;-64
2021/08/26 10:34:23;;;;;;;4.10;3.80;;;16.40;99.90;;;;;;5073741;28;20400;-65
2021/08/26 10:36:55;;;;;;;4.33;3.97;;;16.50;99.90;;;;;;5073300;28;21152;-63
2021/08/26 10:39:41;;;;;;;6.17;3.33;;;16.50;99.90;;;;;;5073025;28;20435;-64
2021/08/26 10:42:16;;;;;;;3.63;3.33;;;16.60;99.90;;;;;;5072265;28;20413;-63
2021/08/26 10:45:00;;;;;;;3.43;3.23;;;16.60;99.90;;;;;;5073569;28;20476;-63
2021/08/26 10:47:48;;;;;;;5.00;3.87;;;16.60;99.90;;;;;;5073197;28;20408;-63
2021/08/26 10:50:20;;;;;;;3.33;2.80;;;16.70;99.90;;;;;;5054849;28;20763;-63
2021/08/26 10:53:05;;;;;;;3.43;3.20;;;16.90;99.90;;;;;;5053439;28;20410;-63
2021/08/26 10:55:40;;;;;;;3.30;3.10;;;16.90;99.90;;;;;;5053498;28;20929;-63
2021/08/26 10:58:21;;;;;;;3.93;3.63;;;17.00;99.90;;;;;;5052926;28;20421;-63
2021/08/26 11:00:59;;;;;;;2.90;2.70;;;17.20;99.90;;;;;;5073043;28;20395;-63
2021/08/26 11:03:34;;;;;;;3.77;3.37;;;17.40;99.90;;;;;;5073497;28;20402;-63
2021/08/26 11:06:18;;;;;;;3.30;3.00;;;17.60;99.90;;;;;;5073298;28;20447;-64
2021/08/26 11:08:45;;;;;;;4.17;3.87;;;18.00;99.90;;;;;;5069749;28;20443;-62
2021/08/26 11:11:29;;;;;;;3.73;3.07;;;18.40;99.90;;;;;;5053164;28;20418;-62
2021/08/26 11:14:04;;;;;;;2.97;2.77;;;18.90;99.90;;;;;;5053208;28;20408;-63
2021/08/26 11:16:29;;;;;;;3.40;3.10;;;19.20;99.90;;;;;;5053155;28;20382;-74
2021/08/26 11:18:58;;;;;;;2.87;2.67;;;19.60;99.90;;;;;;5056442;28;20423;-63
2021/08/26 11:21:45;;;;;;;2.80;2.60;;;19.90;99.90;;;;;;5073575;28;20263;-64
2021/08/26 11:24:16;;;;;;;3.57;3.27;;;20.30;99.90;;;;;;5064805;28;20417;-63
2021/08/26 11:26:47;;;;;;;3.90;3.30;;;20.40;99.90;;;;;;5052733;28;20497;-63
2021/08/26 11:29:24;;;;;;;4.27;2.90;;;20.30;99.90;;;;;;5052988;28;20447;-64
2021/08/26 11:32:00;;;;;;;3.43;2.70;;;20.20;99.90;;;;;;5051732;28;20448;-64
2021/08/26 11:34:32;;;;;;;2.77;2.57;;;19.90;99.90;;;;;;5065330;28;20397;-64
2021/08/26 11:37:11;;;;;;;3.37;3.07;;;19.80;99.90;;;;;;5076891;28;20488;-61
2021/08/26 11:39:36;;;;;;;4.47;3.70;;;19.70;99.90;;;;;;5077005;28;20784;-64
2021/08/26 11:42:03;;;;;;;3.83;3.43;;;19.60;99.90;;;;;;5075924;28;20505;-64
2021/08/26 11:44:31;;;;;;;3.03;2.63;;;19.50;99.90;;;;;;5066393;28;20177;-63
2021/08/26 11:46:57;;;;;;;3.03;2.80;;;19.40;99.90;;;;;;5056450;28;20625;-63
2021/08/26 11:49:42;;;;;;;4.00;3.60;;;19.40;99.90;;;;;;5056824;28;20934;-62
2021/08/26 11:52:13;;;;;;;2.83;2.60;;;19.40;99.90;;;;;;5057854;28;20731;-63
2021/08/26 11:54:44;;;;;;;3.53;3.20;;;19.50;99.90;;;;;;5055519;28;20427;-63
2021/08/26 11:57:10;;;;;;;3.17;2.87;;;19.50;99.90;;;;;;5056274;28;20389;-63
2021/08/26 11:59:38;;;;;;;3.80;2.97;;;19.50;99.90;;;;;;5057273;28;20437;-63
2021/08/26 12:02:23;;;;;;;3.57;2.43;;;19.50;99.90;;;;;;5059081;28;20419;-64
2021/08/26 12:05:00;;;;;;;2.97;2.70;;;19.50;99.90;;;;;;5055385;28;20493;-63
2021/08/26 12:07:34;;;;;;;3.47;3.17;;;19.50;99.90;;;;;;5056109;28;20548;-63
2021/08/26 12:10:12;;;;;;;4.30;3.00;;;19.60;99.90;;;;;;5071128;28;20436;-65
2021/08/26 12:12:47;;;;;;;2.83;2.47;;;19.80;99.90;;;;;;5070763;28;20771;-65
2021/08/26 12:15:24;;;;;;;2.67;2.47;;;20.10;99.90;;;;;;5056457;28;20425;-64
2021/08/26 12:17:52;;;;;;;3.73;2.87;;;20.30;99.90;;;;;;5058948;28;20431;-65
2021/08/26 12:20:18;;;;;;;4.03;3.63;;;20.40;99.90;;;;;;5074950;28;20468;-64
2021/08/26 12:22:47;;;;;;;3.10;2.90;;;20.40;99.90;;;;;;5074901;28;20391;-64
2021/08/26 12:25:20;;;;;;;3.67;3.37;;;20.40;99.90;;;;;;5076177;28;20285;-64
2021/08/26 12:27:55;;;;;;;2.53;2.33;;;20.40;99.90;;;;;;5073358;28;20392;-64
2021/08/26 12:30:41;;;;;;;4.77;3.13;;;20.50;99.90;;;;;;5069233;28;20469;-64
2021/08/26 12:33:12;;;;;;;2.13;1.93;;;20.60;99.90;;;;;;5075627;28;20811;-65
2021/08/26 12:35:44;;;;;;;2.33;2.13;;;20.80;99.90;;;;;;5076141;28;20814;-64
2021/08/26 12:38:10;;;;;;;3.20;2.90;;;21.00;99.90;;;;;;5054461;28;20424;-64
2021/08/26 12:40:47;;;;;;;3.17;2.67;;;21.00;99.90;;;;;;5076129;28;20398;-64
2021/08/26 12:43:12;;;;;;;2.80;2.60;;;21.00;99.90;;;;;;5076078;28;20397;-65
2021/08/26 12:45:38;;;;;;;3.97;3.03;;;20.90;99.90;;;;;;5075607;28;20557;-65
2021/08/26 12:48:20;;;;;;;4.10;2.73;;;20.90;99.90;;;;;;5070776;28;20177;-64
2021/08/26 12:50:46;;;;;;;2.70;2.50;;;20.80;99.90;;;;;;5061958;28;20204;-65
2021/08/26 12:53:20;;;;;;;4.80;3.07;;;20.80;99.90;;;;;;5073881;28;20429;-65